createdAt,value
2017-10-27T00:02:10.699Z,11.40
2017-10-27T00:04:38.191Z,11.90
2017-10-27T00:07:05.677Z,10.33
2017-10-27T00:09:33.933Z,11.10
2017-10-27T00:12:01.440Z,10.60
2017-10-27T00:14:28.951Z,10.93
2017-10-27T00:16:56.410Z,10.50
2017-10-27T00:19:23.880Z,11.70
2017-10-27T00:21:51.363Z,11.23
2017-10-27T00:24:18.850Z,10.93
2017-10-27T00:26:46.348Z,12.50
2017-10-27T00:29:13.808Z,15.60
2017-10-27T00:31:42.810Z,14.83
2017-10-27T00:34:10.282Z,16.80
2017-10-27T00:36:38.575Z,14.67
2017-10-27T00:39:06.852Z,14.33
2017-10-27T00:41:34.326Z,14.60
2017-10-27T00:44:01.839Z,13.87
2017-10-27T00:46:29.323Z,12.90
2017-10-27T00:48:57.579Z,14.37
2017-10-27T00:51:25.828Z,13.70
2017-10-27T00:53:53.314Z,14.30
2017-10-27T00:56:21.598Z,15.20
2017-10-27T00:58:49.839Z,14.57
2017-10-27T01:01:17.341Z,17.13
2017-10-27T01:03:45.579Z,17.13
2017-10-27T01:06:13.104Z,17.50
2017-10-27T01:08:40.585Z,18.97
2017-10-27T01:11:08.088Z,19.30
2017-10-27T01:13:36.379Z,22.23
2017-10-27T01:16:04.627Z,20.03
2017-10-27T01:18:32.148Z,27.10
2017-10-27T01:20:59.631Z,26.23
2017-10-27T01:23:27.133Z,24.67
2017-10-27T01:25:54.615Z,29.30
2017-10-27T01:28:22.139Z,25.87
2017-10-27T01:30:50.388Z,26.77
2017-10-27T01:33:17.873Z,25.17
2017-10-27T01:35:46.163Z,27.53
2017-10-27T01:38:13.627Z,31.67
2017-10-27T01:40:41.098Z,28.90
2017-10-27T01:43:08.591Z,29.10
2017-10-27T01:45:36.119Z,29.10
2017-10-27T01:48:03.618Z,27.60
2017-10-27T01:50:31.103Z,30.00
2017-10-27T01:52:59.357Z,30.87
2017-10-27T01:55:26.860Z,32.17
2017-10-27T01:57:54.367Z,31.27
2017-10-27T02:00:21.846Z,30.10
2017-10-27T02:02:50.094Z,28.47
2017-10-27T02:05:17.605Z,29.80
2017-10-27T02:07:45.963Z,29.43
2017-10-27T02:10:13.475Z,31.20
2017-10-27T02:12:40.952Z,29.47
2017-10-27T02:15:08.474Z,31.20
2017-10-27T02:17:35.948Z,30.30
2017-10-27T02:20:03.460Z,29.10
2017-10-27T02:22:31.701Z,29.47
2017-10-27T02:24:59.198Z,30.63
2017-10-27T02:27:27.475Z,28.83
2017-10-27T02:29:55.739Z,31.87
2017-10-27T02:32:23.272Z,30.23
2017-10-27T02:34:50.758Z,26.60
2017-10-27T02:37:19.047Z,29.40
2017-10-27T02:39:47.279Z,29.40
2017-10-27T02:42:14.761Z,25.90
2017-10-27T02:44:42.270Z,26.90
2017-10-27T02:47:09.751Z,28.80
2017-10-27T02:49:38.210Z,26.17
2017-10-27T02:52:05.701Z,31.30
2017-10-27T02:54:33.241Z,29.50
2017-10-27T02:57:00.719Z,28.67
2017-10-27T02:59:28.184Z,30.33
2017-10-27T03:01:55.690Z,28.97
2017-10-27T03:04:23.163Z,28.97
2017-10-27T03:06:50.676Z,28.87
2017-10-27T03:09:18.173Z,26.63
2017-10-27T03:11:45.684Z,27.60
2017-10-27T03:14:13.168Z,24.10
2017-10-27T03:16:41.451Z,23.60
2017-10-27T03:19:09.707Z,24.07
2017-10-27T03:21:37.179Z,23.83
2017-10-27T03:24:05.468Z,20.53
2017-10-27T03:26:33.707Z,21.40
2017-10-27T03:29:01.175Z,20.70
2017-10-27T03:31:28.679Z,18.73
2017-10-27T03:33:56.170Z,18.20
2017-10-27T03:36:23.662Z,17.03
2017-10-27T03:38:51.930Z,14.80
2017-10-27T03:41:19.442Z,14.70
2017-10-27T03:43:46.916Z,15.17
2017-10-27T03:46:14.419Z,14.53
2017-10-27T03:48:42.671Z,14.00
2017-10-27T03:51:10.148Z,14.23
2017-10-27T03:53:38.416Z,14.90
2017-10-27T03:56:05.917Z,13.07
2017-10-27T03:58:33.427Z,13.30
2017-10-27T04:01:00.895Z,12.60
2017-10-27T04:03:29.588Z,11.97
2017-10-27T04:05:57.830Z,12.93
2017-10-27T04:08:25.291Z,13.60
2017-10-27T04:10:52.810Z,13.43
2017-10-27T04:13:20.303Z,13.07
2017-10-27T04:15:47.802Z,12.53
2017-10-27T04:18:15.308Z,13.40
2017-10-27T04:20:42.820Z,15.37
2017-10-27T04:23:11.055Z,15.30
2017-10-27T04:25:38.559Z,14.50
2017-10-27T04:28:06.821Z,15.70
2017-10-27T04:30:34.320Z,16.47
2017-10-27T04:33:01.821Z,14.10
2017-10-27T04:35:29.372Z,14.47
2017-10-27T04:37:56.831Z,14.10
2017-10-27T04:40:24.331Z,13.70
2017-10-27T04:42:52.581Z,12.43
2017-10-27T04:45:20.062Z,12.70
2017-10-27T04:47:48.439Z,12.47
2017-10-27T04:50:16.696Z,12.77
2017-10-27T04:52:44.164Z,12.00
2017-10-27T04:55:11.665Z,14.40
2017-10-27T04:57:39.179Z,12.50
2017-10-27T05:00:06.662Z,13.57
2017-10-27T05:02:34.940Z,13.73
2017-10-27T05:05:03.168Z,13.80
2017-10-27T05:07:30.655Z,13.47
2017-10-27T05:09:58.919Z,13.83
2017-10-27T05:12:26.418Z,14.10
2017-10-27T05:14:54.658Z,14.57
2017-10-27T05:17:28.639Z,14.90
2017-10-27T05:20:01.829Z,14.70
2017-10-27T05:22:35.051Z,15.77
2017-10-27T05:25:02.548Z,14.80
2017-10-27T05:27:30.027Z,15.23
2017-10-27T05:29:57.548Z,14.90
2017-10-27T05:32:25.813Z,13.90
2017-10-27T05:34:53.306Z,14.10
2017-10-27T05:37:20.787Z,14.47
2017-10-27T05:39:48.288Z,15.30
2017-10-27T05:42:15.758Z,14.63
2017-10-27T05:44:43.252Z,13.20
2017-10-27T05:47:10.768Z,15.03
2017-10-27T05:49:38.252Z,14.90
2017-10-27T05:52:05.721Z,14.07
2017-10-27T05:54:33.227Z,14.30
2017-10-27T05:57:00.703Z,13.20
2017-10-27T05:59:28.979Z,14.70
2017-10-27T06:01:56.448Z,14.50
2017-10-27T06:04:24.715Z,11.80
2017-10-27T06:06:52.982Z,13.70
2017-10-27T06:09:20.461Z,13.23
2017-10-27T06:11:48.739Z,15.13
2017-10-27T06:14:16.983Z,15.27
2017-10-27T06:16:44.483Z,14.10
2017-10-27T06:19:12.727Z,14.60
2017-10-27T06:21:40.344Z,12.63
2017-10-27T06:24:07.820Z,13.33
2017-10-27T06:26:35.323Z,12.83
2017-10-27T06:29:03.572Z,14.50
2017-10-27T06:31:31.092Z,15.30
2017-10-27T06:33:58.565Z,13.93
2017-10-27T06:36:26.066Z,15.83
2017-10-27T06:38:53.590Z,17.10
2017-10-27T06:41:21.083Z,18.30
2017-10-27T06:43:48.592Z,15.90
2017-10-27T06:46:16.084Z,16.10
2017-10-27T06:48:43.571Z,14.17
2017-10-27T06:51:11.836Z,11.63
2017-10-27T06:53:40.084Z,12.50
2017-10-27T06:56:07.575Z,11.27
2017-10-27T06:58:35.054Z,10.90
2017-10-27T07:01:02.554Z,10.40
2017-10-27T07:03:30.039Z,11.90
2017-10-27T07:05:57.495Z,9.70
2017-10-27T07:08:25.013Z,9.30
2017-10-27T07:10:52.478Z,5.60
2017-10-27T07:13:19.977Z,10.57
2017-10-27T07:15:47.467Z,8.80
2017-10-27T07:18:15.715Z,5.73
2017-10-27T07:20:43.203Z,6.20
2017-10-27T07:23:10.721Z,5.20
2017-10-27T07:25:38.232Z,3.83
2017-10-27T07:28:05.702Z,2.87
2017-10-27T07:30:33.191Z,2.67
2017-10-27T07:33:00.659Z,3.63
2017-10-27T07:35:28.160Z,3.73
2017-10-27T07:37:55.631Z,4.03
2017-10-27T07:40:23.131Z,4.40
2017-10-27T07:42:50.671Z,4.10
2017-10-27T07:45:18.194Z,4.40
2017-10-27T07:47:45.656Z,3.87
2017-10-27T07:50:13.129Z,3.20
2017-10-27T07:52:40.648Z,3.62
2017-10-27T07:55:08.889Z,3.60
2017-10-27T07:57:36.372Z,2.45
2017-10-27T08:00:03.850Z,2.47
2017-10-27T08:02:32.129Z,2.45
2017-10-27T08:05:00.366Z,2.17
2017-10-27T08:07:27.848Z,3.05
2017-10-27T08:09:56.099Z,3.65
2017-10-27T08:12:23.616Z,5.10
2017-10-27T08:14:51.134Z,4.37
2017-10-27T08:17:19.372Z,6.25
2017-10-27T08:19:46.878Z,4.60
2017-10-27T08:22:14.389Z,3.67
2017-10-27T08:24:41.852Z,3.35
2017-10-27T08:27:09.351Z,2.92
2017-10-27T08:29:36.844Z,3.03
2017-10-27T08:32:04.339Z,2.75
2017-10-27T08:34:31.816Z,3.00
2017-10-27T08:37:00.068Z,2.58
2017-10-27T08:39:27.586Z,2.75
2017-10-27T08:41:55.072Z,2.60
2017-10-27T08:44:22.534Z,2.05
2017-10-27T08:46:50.024Z,1.95
2017-10-27T08:49:17.550Z,2.40
2017-10-27T08:51:45.055Z,2.75
2017-10-27T08:54:13.330Z,1.80
2017-10-27T08:56:40.805Z,2.90
2017-10-27T08:59:09.038Z,2.10
2017-10-27T09:01:36.530Z,2.78
2017-10-27T09:04:04.759Z,2.78
2017-10-27T09:06:32.276Z,2.70
2017-10-27T09:09:00.535Z,3.45
2017-10-27T09:11:28.016Z,3.10
2017-10-27T09:13:55.520Z,3.37
2017-10-27T09:16:23.019Z,3.75
2017-10-27T09:18:50.480Z,3.67
2017-10-27T09:21:18.740Z,3.53
2017-10-27T09:23:46.243Z,3.40
2017-10-27T09:26:13.739Z,3.40
2017-10-27T09:28:41.195Z,6.30
2017-10-27T09:31:08.688Z,4.10
2017-10-27T09:33:36.143Z,5.12
2017-10-27T09:36:04.847Z,4.87
2017-10-27T09:38:33.121Z,27.58
2017-10-27T09:41:03.574Z,19.37
2017-10-27T09:43:31.062Z,14.93
2017-10-27T09:45:58.570Z,14.73
2017-10-27T09:48:26.861Z,14.38
2017-10-27T09:50:54.339Z,6.40
2017-10-27T09:53:21.819Z,5.35
2017-10-27T09:55:49.537Z,6.22
2017-10-27T09:58:17.863Z,5.37
2017-10-27T10:00:45.368Z,5.55
2017-10-27T10:03:12.831Z,5.40
2017-10-27T10:05:40.335Z,6.55
2017-10-27T10:08:07.811Z,6.22
2017-10-27T10:10:35.271Z,5.60
2017-10-27T10:13:03.541Z,6.57
2017-10-27T10:15:31.020Z,7.35
2017-10-27T10:17:58.772Z,12.30
2017-10-27T10:20:26.297Z,5.87
2017-10-27T10:22:55.541Z,6.07
2017-10-27T10:25:23.812Z,6.05
2017-10-27T10:27:51.321Z,4.97
2017-10-27T10:30:18.795Z,5.20
2017-10-27T10:32:46.298Z,5.03
2017-10-27T10:35:13.771Z,6.20
2017-10-27T10:37:41.256Z,6.90
2017-10-27T10:40:08.778Z,6.93
2017-10-27T10:42:36.239Z,6.90
2017-10-27T10:45:05.482Z,5.60
2017-10-27T10:47:32.966Z,5.90
2017-10-27T10:50:00.471Z,8.07
2017-10-27T10:52:27.975Z,7.20
2017-10-27T10:54:55.467Z,6.87
2017-10-27T10:57:23.701Z,8.60
2017-10-27T10:59:51.188Z,6.00
2017-10-27T11:02:19.429Z,5.85
2017-10-27T11:04:46.945Z,4.93
2017-10-27T11:07:15.196Z,5.57
2017-10-27T11:09:42.700Z,7.53
2017-10-27T11:12:11.042Z,6.05
2017-10-27T11:14:38.520Z,5.47
2017-10-27T11:17:06.767Z,5.00
2017-10-27T11:19:34.254Z,5.27
2017-10-27T11:22:01.807Z,5.00
2017-10-27T11:24:30.059Z,4.80
2017-10-27T11:26:58.826Z,5.57
2017-10-27T11:29:27.559Z,6.27
2017-10-27T11:31:55.841Z,5.67
2017-10-27T11:34:24.132Z,5.47
2017-10-27T11:36:52.360Z,5.10
2017-10-27T11:39:19.871Z,4.40
2017-10-27T11:41:47.363Z,6.10
2017-10-27T11:44:14.837Z,4.57
2017-10-27T11:46:42.332Z,5.33
2017-10-27T11:49:10.568Z,5.60
2017-10-27T11:51:38.079Z,4.73
2017-10-27T11:54:05.577Z,5.47
2017-10-27T11:56:33.078Z,5.30
2017-10-27T11:59:01.345Z,4.90
2017-10-27T12:01:28.807Z,5.93
2017-10-27T12:03:57.067Z,5.10
2017-10-27T12:06:24.641Z,5.17
2017-10-27T12:08:52.128Z,5.03
2017-10-27T12:11:19.622Z,5.60
2017-10-27T12:13:47.140Z,5.67
2017-10-27T12:16:14.707Z,5.65
2017-10-27T12:18:42.175Z,6.07
2017-10-27T12:21:09.667Z,6.50
2017-10-27T12:23:37.150Z,6.65
2017-10-27T12:26:04.662Z,6.53
2017-10-27T12:28:32.129Z,5.90
2017-10-27T12:30:59.647Z,6.80
2017-10-27T12:33:27.896Z,5.87
2017-10-27T12:35:55.374Z,5.13
2017-10-27T12:38:23.651Z,5.07
2017-10-27T12:40:51.906Z,5.70
2017-10-27T12:43:19.413Z,5.27
2017-10-27T12:45:46.883Z,5.57
2017-10-27T12:48:14.420Z,4.20
2017-10-27T12:50:42.643Z,4.40
2017-10-27T12:53:10.140Z,4.50
2017-10-27T12:55:38.402Z,4.40
2017-10-27T12:58:05.929Z,4.40
2017-10-27T13:00:33.391Z,3.90
2017-10-27T13:03:00.905Z,4.40
2017-10-27T13:05:29.203Z,4.07
2017-10-27T13:07:56.680Z,3.80
2017-10-27T13:10:24.140Z,3.43
2017-10-27T13:12:51.669Z,3.40
2017-10-27T13:15:19.123Z,4.00
2017-10-27T13:17:47.402Z,3.87
2017-10-27T13:20:14.911Z,3.47
2017-10-27T13:22:42.450Z,4.47
2017-10-27T13:25:09.943Z,4.73
2017-10-27T13:27:38.697Z,7.93
2017-10-27T13:30:06.164Z,8.33
2017-10-27T13:32:33.651Z,30.87
2017-10-27T13:35:01.162Z,6.43
2017-10-27T13:37:28.650Z,5.90
2017-10-27T13:39:56.160Z,7.80
2017-10-27T13:42:23.627Z,15.10
2017-10-27T13:44:51.116Z,9.50
2017-10-27T13:47:18.602Z,6.10
2017-10-27T13:49:46.111Z,5.23
2017-10-27T13:52:13.619Z,5.20
2017-10-27T13:54:41.119Z,4.70
2017-10-27T13:57:08.639Z,4.90
2017-10-27T13:59:36.111Z,4.33
2017-10-27T14:02:04.396Z,4.80
2017-10-27T14:04:32.662Z,4.73
2017-10-27T14:07:00.140Z,5.73
2017-10-27T14:09:27.636Z,4.57
2017-10-27T14:11:55.130Z,5.30
2017-10-27T14:14:22.636Z,5.50
2017-10-27T14:16:50.140Z,5.67
2017-10-27T14:19:17.611Z,4.73
2017-10-27T14:21:45.076Z,4.33
2017-10-27T14:24:13.368Z,3.77
2017-10-27T14:26:40.855Z,3.87
2017-10-27T14:29:08.354Z,3.30
2017-10-27T14:31:35.856Z,3.50
2017-10-27T14:34:03.330Z,3.10
2017-10-27T14:36:30.829Z,3.37
2017-10-27T14:38:58.301Z,3.33
2017-10-27T14:41:26.592Z,3.50
2017-10-27T14:43:54.826Z,3.60
2017-10-27T14:46:22.315Z,3.47
2017-10-27T14:48:50.570Z,3.53
2017-10-27T14:51:18.085Z,5.60
2017-10-27T14:53:45.607Z,6.40
2017-10-27T14:56:13.840Z,3.63
2017-10-27T14:58:41.373Z,3.50
2017-10-27T15:01:08.867Z,3.03
2017-10-27T15:03:36.382Z,3.33
2017-10-27T15:06:05.190Z,2.87
2017-10-27T15:08:35.698Z,3.30
2017-10-27T15:11:03.178Z,4.10
2017-10-27T15:13:30.641Z,3.50
2017-10-27T15:15:58.983Z,3.20
2017-10-27T15:18:27.234Z,2.83
2017-10-27T15:20:54.718Z,2.97
2017-10-27T15:23:22.944Z,3.27
2017-10-27T15:25:51.213Z,2.73
2017-10-27T15:28:18.674Z,3.37
2017-10-27T15:30:46.192Z,3.00
2017-10-27T15:33:14.428Z,3.03
2017-10-27T15:35:41.899Z,3.40
2017-10-27T15:38:09.419Z,3.40
2017-10-27T15:40:36.871Z,3.63
2017-10-27T15:43:04.393Z,3.17
2017-10-27T15:45:32.641Z,3.20
2017-10-27T15:48:00.151Z,3.40
2017-10-27T15:50:27.659Z,3.30
2017-10-27T15:52:55.123Z,2.83
2017-10-27T15:55:22.609Z,3.10
2017-10-27T15:57:50.840Z,4.10
2017-10-27T16:00:18.333Z,3.97
2017-10-27T16:02:46.601Z,3.90
2017-10-27T16:05:14.119Z,3.43
2017-10-27T16:07:41.596Z,3.30
2017-10-27T16:10:09.077Z,3.70
2017-10-27T16:12:36.566Z,4.67
2017-10-27T16:15:04.841Z,4.83
2017-10-27T16:17:33.111Z,3.10
2017-10-27T16:20:01.359Z,3.27
2017-10-27T16:22:28.863Z,15.40
2017-10-27T16:24:56.369Z,10.02
2017-10-27T16:27:23.869Z,17.97
2017-10-27T16:29:51.339Z,10.70
2017-10-27T16:32:18.862Z,44.37
2017-10-27T16:34:46.335Z,26.00
2017-10-27T16:37:14.598Z,10.65
2017-10-27T16:39:42.104Z,39.83
2017-10-27T16:42:09.584Z,46.60
2017-10-27T16:44:37.538Z,79.12
2017-10-27T16:47:04.995Z,35.35
2017-10-27T16:49:32.475Z,31.65
2017-10-27T16:51:59.992Z,8.68
2017-10-27T16:54:27.455Z,6.22
2017-10-27T16:56:54.952Z,5.37
2017-10-27T16:59:22.445Z,5.90
2017-10-27T17:01:50.746Z,3.90
2017-10-27T17:04:18.215Z,3.90
2017-10-27T17:06:45.693Z,4.05
2017-10-27T17:09:13.197Z,4.00
2017-10-27T17:11:41.447Z,3.83
2017-10-27T17:14:08.994Z,3.80
2017-10-27T17:16:36.471Z,3.22
2017-10-27T17:19:05.263Z,2.75
2017-10-27T17:21:32.751Z,4.12
2017-10-27T17:24:00.988Z,4.22
2017-10-27T17:26:28.498Z,4.30
2017-10-27T17:28:55.997Z,3.20
2017-10-27T17:31:24.310Z,4.12
2017-10-27T17:33:52.560Z,3.53
2017-10-27T17:36:20.088Z,3.17
2017-10-27T17:38:47.579Z,3.78
2017-10-27T17:41:15.066Z,4.05
2017-10-27T17:43:43.375Z,4.00
2017-10-27T17:46:10.913Z,3.45
2017-10-27T17:48:38.451Z,4.30
2017-10-27T17:51:05.921Z,3.80
2017-10-27T17:53:34.199Z,3.70
2017-10-27T17:56:02.434Z,3.97
2017-10-27T17:58:29.944Z,3.83
2017-10-27T18:00:58.257Z,2.80
2017-10-27T18:03:25.731Z,4.40
2017-10-27T18:05:53.243Z,4.20
2017-10-27T18:08:20.725Z,4.20
2017-10-27T18:10:48.208Z,4.22
2017-10-27T18:13:15.731Z,3.72
2017-10-27T18:15:43.202Z,3.75
2017-10-27T18:18:10.746Z,3.37
2017-10-27T18:20:38.329Z,3.85
2017-10-27T18:23:05.799Z,4.03
2017-10-27T18:25:33.303Z,3.78
2017-10-27T18:28:01.582Z,3.33
2017-10-27T18:30:29.830Z,3.97
2017-10-27T18:32:58.320Z,3.95
2017-10-27T18:35:26.630Z,3.75
2017-10-27T18:37:54.119Z,4.55
2017-10-27T18:40:21.631Z,3.80
2017-10-27T18:42:49.870Z,3.80
2017-10-27T18:45:17.399Z,3.28
2017-10-27T18:47:44.876Z,3.65
2017-10-27T18:50:12.379Z,4.00
2017-10-27T18:52:40.650Z,5.97
2017-10-27T18:55:08.137Z,4.00
2017-10-27T18:57:36.400Z,3.97
2017-10-27T19:00:04.655Z,4.20
2017-10-27T19:02:32.179Z,3.95
2017-10-27T19:04:59.681Z,4.20
2017-10-27T19:07:27.201Z,4.35
2017-10-27T19:09:54.679Z,4.03
2017-10-27T19:12:22.164Z,4.80
2017-10-27T19:14:50.461Z,4.57
2017-10-27T19:17:17.963Z,4.62
2017-10-27T19:19:45.470Z,5.20
2017-10-27T19:22:13.699Z,5.20
2017-10-27T19:24:41.207Z,5.43
2017-10-27T19:27:09.453Z,4.70
2017-10-27T19:29:37.002Z,5.62
2017-10-27T19:32:04.484Z,4.95
2017-10-27T19:34:31.976Z,5.40
2017-10-27T19:36:59.510Z,4.55
2017-10-27T19:39:27.757Z,4.73
2017-10-27T19:41:55.246Z,4.55
2017-10-27T19:44:23.507Z,4.53
2017-10-27T19:46:51.020Z,4.57
2017-10-27T19:49:18.480Z,4.57
2017-10-27T19:51:45.948Z,6.15
2017-10-27T19:54:13.445Z,4.55
2017-10-27T19:56:40.934Z,4.90
2017-10-27T19:59:08.419Z,4.72
2017-10-27T20:01:35.899Z,4.87
2017-10-27T20:04:03.393Z,4.60
2017-10-27T20:06:31.625Z,4.80
2017-10-27T20:08:59.164Z,4.70
2017-10-27T20:11:26.648Z,4.65
2017-10-27T20:13:54.150Z,4.30
2017-10-27T20:16:22.379Z,5.57
2017-10-27T20:18:49.866Z,5.05
2017-10-27T20:21:17.377Z,4.68
2017-10-27T20:23:44.879Z,4.87
2017-10-27T20:26:12.365Z,5.10
2017-10-27T20:28:40.621Z,5.12
2017-10-27T20:31:08.876Z,5.18
2017-10-27T20:33:36.412Z,4.80
2017-10-27T20:36:03.900Z,4.95
2017-10-27T20:38:31.381Z,5.25
2017-10-27T20:40:59.678Z,5.03
2017-10-27T20:43:27.175Z,4.95
2017-10-27T20:45:54.671Z,4.68
2017-10-27T20:48:22.355Z,4.87
2017-10-27T20:50:50.654Z,4.70
2017-10-27T20:53:18.147Z,4.93
2017-10-27T20:55:45.648Z,5.50
2017-10-27T20:58:15.796Z,5.80
2017-10-27T21:00:43.280Z,4.75
2017-10-27T21:03:10.808Z,4.07
2017-10-27T21:05:38.271Z,4.50
2017-10-27T21:08:05.726Z,4.50
2017-10-27T21:10:33.213Z,3.55
2017-10-27T21:13:00.699Z,4.55
2017-10-27T21:15:28.190Z,3.70
2017-10-27T21:17:55.668Z,3.65
2017-10-27T21:20:23.175Z,4.15
2017-10-27T21:22:50.667Z,5.30
2017-10-27T21:25:18.140Z,4.62
2017-10-27T21:27:45.658Z,4.85
2017-10-27T21:30:13.118Z,4.57
2017-10-27T21:32:40.625Z,6.00
2017-10-27T21:35:08.076Z,5.62
2017-10-27T21:37:35.595Z,5.00
2017-10-27T21:40:03.869Z,5.18
2017-10-27T21:42:31.330Z,5.60
2017-10-27T21:44:59.591Z,5.40
2017-10-27T21:47:27.063Z,5.40
2017-10-27T21:49:54.602Z,5.18
2017-10-27T21:52:22.070Z,5.87
2017-10-27T21:54:49.543Z,5.60
2017-10-27T21:57:17.822Z,5.90
2017-10-27T21:59:46.040Z,4.60
2017-10-27T22:02:13.551Z,4.82
2017-10-27T22:04:41.790Z,5.10
2017-10-27T22:07:09.285Z,6.40
2017-10-27T22:09:36.788Z,6.05
2017-10-27T22:12:04.298Z,6.12
2017-10-27T22:14:32.572Z,6.68
2017-10-27T22:17:00.020Z,6.87
2017-10-27T22:19:27.503Z,5.75
2017-10-27T22:21:55.768Z,5.97
2017-10-27T22:24:23.274Z,6.35
2017-10-27T22:26:50.752Z,7.32
2017-10-27T22:29:18.235Z,6.20
2017-10-27T22:31:45.699Z,6.87
2017-10-27T22:34:13.198Z,7.78
2017-10-27T22:36:40.691Z,7.05
2017-10-27T22:39:08.159Z,7.85
2017-10-27T22:41:35.643Z,7.55
2017-10-27T22:44:03.887Z,7.57
2017-10-27T22:46:31.386Z,7.25
2017-10-27T22:48:59.628Z,6.95
2017-10-27T22:51:27.116Z,8.95
2017-10-27T22:53:55.340Z,8.10
2017-10-27T22:56:22.838Z,9.65
2017-10-27T22:58:50.308Z,8.18
2017-10-27T23:01:18.561Z,8.30
2017-10-27T23:03:46.048Z,9.68
2017-10-27T23:06:14.338Z,9.10
2017-10-27T23:08:41.799Z,10.48
2017-10-27T23:11:09.293Z,10.30
2017-10-27T23:13:36.812Z,10.45
2017-10-27T23:16:05.047Z,10.30
2017-10-27T23:18:32.540Z,10.00
2017-10-27T23:21:00.769Z,9.13
2017-10-27T23:23:28.291Z,11.02
2017-10-27T23:25:56.595Z,10.05
2017-10-27T23:28:24.100Z,10.80
2017-10-27T23:30:52.368Z,10.30
2017-10-27T23:33:19.827Z,11.68
2017-10-27T23:35:47.314Z,10.57
2017-10-27T23:38:14.826Z,10.27
2017-10-27T23:40:43.062Z,9.80
2017-10-27T23:43:10.521Z,11.55
2017-10-27T23:45:38.029Z,9.90
2017-10-27T23:48:05.521Z,9.80
2017-10-27T23:50:33.771Z,12.35
2017-10-27T23:53:01.249Z,12.18
2017-10-27T23:55:29.531Z,11.18
2017-10-27T23:57:57.010Z,10.63
